Time;durP1;ratioP1;P1;durP2;ratioP2;P2;SDS_P1;SDS_P2;PMS_P1;PMS_P2;Temp;Humidity;BMP_temperature;BMP_pressure;BME280_temperature;BME280_humidity;BME280_pressure;Samples;Min_cycle;Max_cycle;Signal;HPM_P1;HPM_P2
2020/12/17 00:00:02;;;;;;;25.87;14.70;;;4.70;99.90;;;;;;5091102;28;20497;-53
2020/12/17 00:02:28;;;;;;;27.97;13.50;;;4.70;99.90;;;;;;5092485;28;20445;-52
2020/12/17 00:04:56;;;;;;;27.60;13.30;;;4.70;99.90;;;;;;5090975;28;20828;-52
2020/12/17 00:07:22;;;;;;;31.00;14.40;;;4.80;99.90;;;;;;5090887;28;20458;-53
2020/12/17 00:09:49;;;;;;;22.43;13.33;;;4.90;99.90;;;;;;5092029;28;20459;-52
2020/12/17 00:12:15;;;;;;;24.33;13.77;;;5.00;99.90;;;;;;5091609;28;20971;-53
2020/12/17 00:14:42;;;;;;;26.00;13.87;;;5.00;99.90;;;;;;5092195;28;20490;-53
2020/12/17 00:17:08;;;;;;;22.67;13.60;;;5.00;99.90;;;;;;5090914;28;20474;-52
2020/12/17 00:19:35;;;;;;;25.07;14.40;;;5.00;99.90;;;;;;5084954;28;20460;-52
2020/12/17 00:22:02;;;;;;;27.60;14.60;;;4.90;99.90;;;;;;5091773;28;20990;-53
2020/12/17 00:24:28;;;;;;;24.50;12.40;;;5.00;99.90;;;;;;5091027;28;20454;-52
2020/12/17 00:26:55;;;;;;;27.03;13.20;;;5.00;99.90;;;;;;5091947;28;20446;-53
2020/12/17 00:29:21;;;;;;;25.60;13.83;;;5.10;99.90;;;;;;5090440;28;20462;-52
2020/12/17 00:31:51;;;;;;;25.87;13.70;;;5.10;99.90;;;;;;5090838;28;20519;-53
2020/12/17 00:34:18;;;;;;;23.60;12.70;;;5.00;99.90;;;;;;5092100;28;20537;-53
2020/12/17 00:36:44;;;;;;;24.30;13.17;;;5.00;99.90;;;;;;5090750;28;20474;-53
2020/12/17 00:39:12;;;;;;;23.23;12.77;;;4.90;99.90;;;;;;5091063;28;20442;-53
2020/12/17 00:41:38;;;;;;;24.20;12.77;;;4.90;99.90;;;;;;5090434;28;20497;-53
2020/12/17 00:44:05;;;;;;;21.03;11.90;;;5.00;99.90;;;;;;5086669;28;20449;-53
2020/12/17 00:46:31;;;;;;;23.20;12.50;;;5.10;99.90;;;;;;5081974;28;20848;-53
2020/12/17 00:48:58;;;;;;;20.67;12.80;;;5.00;99.90;;;;;;5089608;28;20876;-53
2020/12/17 00:51:24;;;;;;;21.30;11.77;;;5.00;99.90;;;;;;5091402;28;20471;-53
2020/12/17 00:53:51;;;;;;;25.17;13.13;;;4.90;99.90;;;;;;5090823;28;20617;-53
2020/12/17 00:56:18;;;;;;;24.83;13.00;;;5.00;99.90;;;;;;5089746;28;20463;-53
2020/12/17 00:58:45;;;;;;;26.70;14.20;;;4.80;99.90;;;;;;5077980;28;20446;-53
2020/12/17 01:01:11;;;;;;;24.63;13.97;;;4.90;99.90;;;;;;5091421;28;20470;-53
2020/12/17 01:03:38;;;;;;;23.43;13.20;;;4.90;99.90;;;;;;5089722;28;20831;-53
2020/12/17 01:06:07;;;;;;;22.63;12.80;;;4.90;99.90;;;;;;5091158;28;20454;-53
2020/12/17 01:08:34;;;;;;;26.97;13.90;;;4.90;99.90;;;;;;5090047;28;20460;-53
2020/12/17 01:11:01;;;;;;;26.30;14.43;;;4.90;99.90;;;;;;5090848;28;20550;-53
2020/12/17 01:13:28;;;;;;;22.47;12.53;;;4.90;99.90;;;;;;5090132;28;20486;-53
2020/12/17 01:15:55;;;;;;;22.93;12.27;;;5.00;99.90;;;;;;5090199;28;20487;-53
2020/12/17 01:18:22;;;;;;;23.07;13.53;;;4.80;99.90;;;;;;5090234;28;20575;-52
2020/12/17 01:20:48;;;;;;;22.50;12.47;;;4.70;99.90;;;;;;5089822;28;20482;-53
2020/12/17 01:23:15;;;;;;;26.17;13.20;;;4.90;99.90;;;;;;5090992;28;20822;-52
2020/12/17 01:25:41;;;;;;;22.90;12.87;;;4.80;99.90;;;;;;5089922;28;20881;-53
2020/12/17 01:28:13;;;;;;;24.30;13.40;;;4.70;99.90;;;;;;5087275;28;20466;-53
2020/12/17 01:30:41;;;;;;;22.50;11.70;;;4.70;99.90;;;;;;5090706;28;21018;-53
2020/12/17 01:33:07;;;;;;;23.77;12.57;;;4.60;99.90;;;;;;5089183;28;20469;-52
2020/12/17 01:35:34;;;;;;;25.17;12.77;;;4.60;99.90;;;;;;5090288;28;20455;-53
2020/12/17 01:38:02;;;;;;;19.73;12.27;;;4.60;99.90;;;;;;5086857;28;20466;-53
2020/12/17 01:40:29;;;;;;;22.53;11.33;;;4.70;99.90;;;;;;5089561;28;20477;-53
2020/12/17 01:42:55;;;;;;;22.20;11.73;;;4.80;99.90;;;;;;5089094;28;20463;-53
2020/12/17 01:45:22;;;;;;;22.83;11.80;;;4.80;99.90;;;;;;5090531;28;20446;-52
2020/12/17 01:47:51;;;;;;;25.20;12.63;;;4.90;99.90;;;;;;5088505;28;20955;-53
2020/12/17 01:50:18;;;;;;;20.67;12.47;;;5.00;99.90;;;;;;5090393;28;20463;-53
2020/12/17 01:52:45;;;;;;;24.70;12.87;;;4.90;99.90;;;;;;5089446;28;20553;-53
2020/12/17 01:55:11;;;;;;;27.00;12.37;;;4.70;99.90;;;;;;5090081;28;20486;-53
2020/12/17 01:57:44;;;;;;;22.00;11.90;;;4.50;99.90;;;;;;5088546;28;20535;-53
2020/12/17 02:00:13;;;;;;;20.40;11.60;;;4.60;99.90;;;;;;5090328;28;20543;-53
2020/12/17 02:02:41;;;;;;;19.40;10.33;;;4.80;99.90;;;;;;5089056;28;21129;-53
2020/12/17 02:05:08;;;;;;;23.67;12.37;;;4.80;99.90;;;;;;5090330;28;20442;-53
2020/12/17 02:07:35;;;;;;;22.77;12.03;;;4.80;99.90;;;;;;5089377;28;20470;-53
2020/12/17 02:10:02;;;;;;;19.67;10.90;;;4.70;99.90;;;;;;5090054;28;20496;-53
2020/12/17 02:12:45;;;;;;;19.07;11.07;;;4.70;99.90;;;;;;5089345;28;20929;-53
2020/12/17 02:15:12;;;;;;;19.87;11.17;;;4.70;99.90;;;;;;5090513;28;20477;-53
2020/12/17 02:17:39;;;;;;;19.73;11.20;;;4.60;99.90;;;;;;5089657;28;20831;-53
2020/12/17 02:20:07;;;;;;;20.47;11.30;;;4.70;99.90;;;;;;5090306;28;20477;-53
2020/12/17 02:22:35;;;;;;;23.53;11.03;;;4.50;99.90;;;;;;5087447;28;20464;-52
2020/12/17 02:25:05;;;;;;;23.23;11.70;;;4.40;99.90;;;;;;5089182;28;20473;-53
2020/12/17 02:27:31;;;;;;;21.57;11.80;;;4.40;99.90;;;;;;5088928;28;20466;-52
2020/12/17 02:29:58;;;;;;;21.33;12.40;;;4.50;99.90;;;;;;5089861;28;20452;-53
2020/12/17 02:32:24;;;;;;;20.53;11.27;;;4.50;99.90;;;;;;5085252;28;20469;-53
2020/12/17 02:34:51;;;;;;;21.03;12.10;;;4.50;99.90;;;;;;5090008;28;20481;-52
2020/12/17 02:37:18;;;;;;;20.67;11.60;;;4.50;99.90;;;;;;5089391;28;20454;-53
2020/12/17 02:39:44;;;;;;;20.37;11.40;;;4.60;99.90;;;;;;5089808;28;20455;-53
2020/12/17 02:42:12;;;;;;;20.50;11.60;;;4.60;99.90;;;;;;5088932;28;20522;-53
2020/12/17 02:44:38;;;;;;;19.00;10.87;;;4.60;99.90;;;;;;5087840;28;20528;-53
2020/12/17 02:47:05;;;;;;;20.37;11.70;;;4.60;99.90;;;;;;5088169;28;20521;-52
2020/12/17 02:49:31;;;;;;;20.17;12.03;;;4.80;99.90;;;;;;5089710;28;20446;-52
2020/12/17 02:51:58;;;;;;;23.07;11.10;;;4.80;99.90;;;;;;5089203;28;20473;-52
2020/12/17 02:54:24;;;;;;;21.60;11.70;;;4.90;99.90;;;;;;5089229;28;20896;-53
2020/12/17 02:56:51;;;;;;;23.70;12.00;;;4.80;99.90;;;;;;5089173;28;20454;-53
2020/12/17 02:59:18;;;;;;;19.63;11.60;;;4.70;99.90;;;;;;5088053;28;20465;-53
2020/12/17 03:01:45;;;;;;;27.50;12.70;;;4.60;99.90;;;;;;5088451;28;20489;-53
2020/12/17 03:04:11;;;;;;;20.30;11.00;;;4.70;99.90;;;;;;5089978;28;20519;-53
2020/12/17 03:06:38;;;;;;;20.27;11.07;;;4.80;99.90;;;;;;5088613;28;20494;-52
2020/12/17 03:09:06;;;;;;;17.83;10.83;;;4.80;99.90;;;;;;5089301;28;21034;-53
2020/12/17 03:11:33;;;;;;;20.30;11.47;;;4.80;99.90;;;;;;5088887;28;20463;-53
2020/12/17 03:14:03;;;;;;;23.47;12.37;;;4.80;99.90;;;;;;5091638;28;20512;-52
2020/12/17 03:16:32;;;;;;;20.93;12.07;;;4.80;99.90;;;;;;5090328;28;20825;-53
2020/12/17 03:19:01;;;;;;;22.00;12.30;;;4.80;99.90;;;;;;5093129;28;20449;-53
2020/12/17 03:21:27;;;;;;;19.10;10.80;;;4.90;99.90;;;;;;5091940;28;20511;-53
2020/12/17 03:23:54;;;;;;;22.67;12.33;;;4.90;99.90;;;;;;5092548;28;20446;-52
2020/12/17 03:26:20;;;;;;;24.10;12.30;;;4.90;99.90;;;;;;5091697;28;20511;-53
2020/12/17 03:28:47;;;;;;;20.70;11.40;;;4.80;99.90;;;;;;5093450;28;20831;-53
2020/12/17 03:31:16;;;;;;;19.00;10.47;;;4.80;99.90;;;;;;5091323;28;20481;-53
2020/12/17 03:33:44;;;;;;;16.97;9.70;;;4.90;99.90;;;;;;5092799;28;21047;-52
2020/12/17 03:36:10;;;;;;;15.60;9.63;;;4.70;99.90;;;;;;5088297;28;20454;-53
2020/12/17 03:38:37;;;;;;;21.20;10.40;;;4.60;99.90;;;;;;5092888;28;20459;-53
2020/12/17 03:41:04;;;;;;;18.50;10.20;;;4.50;99.90;;;;;;5093064;28;20473;-53
2020/12/17 03:43:30;;;;;;;20.97;11.03;;;4.50;99.90;;;;;;5093158;28;20445;-53
2020/12/17 03:45:56;;;;;;;19.73;10.53;;;4.40;99.90;;;;;;5093539;28;20473;-53
2020/12/17 03:48:23;;;;;;;20.80;10.43;;;4.40;99.90;;;;;;5092976;28;20446;-53
2020/12/17 03:50:50;;;;;;;17.63;10.37;;;4.30;99.90;;;;;;5092257;28;20466;-52
2020/12/17 03:53:17;;;;;;;20.03;11.03;;;4.10;99.90;;;;;;5092911;28;20449;-53
2020/12/17 03:55:45;;;;;;;19.03;9.97;;;4.00;99.90;;;;;;5093001;28;20445;-53
2020/12/17 03:58:12;;;;;;;18.83;10.27;;;4.00;99.90;;;;;;5093336;28;20445;-53
2020/12/17 04:00:38;;;;;;;18.73;9.73;;;4.10;99.90;;;;;;5092854;28;20627;-53
2020/12/17 04:03:05;;;;;;;14.87;9.20;;;4.10;99.90;;;;;;5092599;28;20446;-53
2020/12/17 04:05:31;;;;;;;17.60;9.73;;;4.30;99.90;;;;;;5091059;28;20451;-52
2020/12/17 04:07:59;;;;;;;17.87;9.97;;;4.20;99.90;;;;;;5091974;28;20446;-53
2020/12/17 04:10:25;;;;;;;18.47;10.60;;;4.20;99.90;;;;;;5092576;28;20468;-53
2020/12/17 04:12:52;;;;;;;16.27;8.70;;;4.30;99.90;;;;;;5092723;28;20441;-52
2020/12/17 04:15:18;;;;;;;21.73;9.87;;;4.40;99.90;;;;;;5092876;28;20509;-52
2020/12/17 04:17:45;;;;;;;18.03;10.63;;;4.50;99.90;;;;;;5092425;28;20438;-53
2020/12/17 04:20:11;;;;;;;16.57;9.77;;;4.40;99.90;;;;;;5091509;28;20471;-53
2020/12/17 04:22:38;;;;;;;18.60;10.33;;;4.40;99.90;;;;;;5072455;28;20484;-53
2020/12/17 04:25:05;;;;;;;20.13;11.13;;;4.30;99.90;;;;;;5091725;28;20441;-53
2020/12/17 04:27:32;;;;;;;18.70;10.90;;;4.20;99.90;;;;;;5092682;28;20453;-53
2020/12/17 04:29:58;;;;;;;19.77;10.50;;;4.10;99.90;;;;;;5092229;28;20504;-53
2020/12/17 04:32:25;;;;;;;18.40;10.43;;;4.20;99.90;;;;;;5092241;28;20457;-53
2020/12/17 04:34:51;;;;;;;19.47;10.77;;;4.30;99.90;;;;;;5092260;28;20481;-53
2020/12/17 04:37:18;;;;;;;20.13;11.77;;;4.40;99.90;;;;;;5072744;28;20450;-52
2020/12/17 04:39:44;;;;;;;22.67;11.97;;;4.40;99.90;;;;;;5071965;28;20453;-53
2020/12/17 04:42:13;;;;;;;28.67;12.47;;;4.40;99.90;;;;;;5075625;28;20458;-53
2020/12/17 04:44:42;;;;;;;24.83;12.90;;;4.40;99.90;;;;;;5092306;28;20446;-52
2020/12/17 04:47:12;;;;;;;21.77;11.83;;;4.30;99.90;;;;;;5091970;28;20447;-52
2020/12/17 04:49:42;;;;;;;24.43;12.73;;;4.50;99.90;;;;;;5091818;28;20449;-53
2020/12/17 04:52:08;;;;;;;23.53;11.23;;;4.20;99.90;;;;;;5091963;28;21020;-53
2020/12/17 04:54:35;;;;;;;26.17;11.70;;;4.20;99.90;;;;;;5091717;28;20479;-53
2020/12/17 04:57:09;;;;;;;20.50;11.53;;;4.30;99.90;;;;;;5090929;28;20865;-53
2020/12/17 04:59:45;;;;;;;23.37;11.37;;;4.30;99.90;;;;;;5091976;28;20446;-54
2020/12/17 05:02:12;;;;;;;19.73;10.63;;;4.40;99.90;;;;;;5113827;22;20554;-49
2020/12/17 05:04:41;;;;;;;22.30;11.27;;;4.40;99.90;;;;;;5083448;28;20467;-49
2020/12/17 05:07:10;;;;;;;25.00;12.57;;;4.40;99.90;;;;;;5071630;28;20936;-49
2020/12/17 05:09:38;;;;;;;23.57;11.97;;;4.40;99.90;;;;;;5071169;28;20447;-49
2020/12/17 05:12:05;;;;;;;24.47;11.73;;;4.40;99.90;;;;;;5071125;28;20691;-49
2020/12/17 05:14:32;;;;;;;22.40;11.60;;;4.40;99.90;;;;;;5069949;28;20474;-49
2020/12/17 05:16:59;;;;;;;22.90;11.80;;;4.40;99.90;;;;;;5071284;28;20497;-49
2020/12/17 05:19:27;;;;;;;23.30;11.80;;;4.30;99.90;;;;;;5071183;28;20446;-50
2020/12/17 05:21:55;;;;;;;21.60;11.30;;;4.30;99.90;;;;;;5071373;28;20468;-49
2020/12/17 05:24:22;;;;;;;19.87;10.53;;;4.40;99.90;;;;;;5069171;28;20454;-49
2020/12/17 05:26:49;;;;;;;19.57;11.20;;;4.40;99.90;;;;;;5064490;28;20443;-49
2020/12/17 05:29:16;;;;;;;21.43;11.00;;;4.30;99.90;;;;;;5050331;28;20447;-49
2020/12/17 05:31:43;;;;;;;22.33;11.30;;;4.20;99.90;;;;;;5053728;28;20489;-49
2020/12/17 05:34:11;;;;;;;24.17;11.80;;;4.10;99.90;;;;;;5051785;28;20491;-49
2020/12/17 05:36:39;;;;;;;20.60;10.70;;;4.10;99.90;;;;;;5049705;28;20447;-49
2020/12/17 05:39:08;;;;;;;19.73;10.20;;;4.20;99.90;;;;;;5050096;28;20945;-49
2020/12/17 05:41:36;;;;;;;20.67;10.57;;;4.30;99.90;;;;;;5050206;28;20460;-49
2020/12/17 05:44:13;;;;;;;25.33;11.87;;;4.40;99.90;;;;;;5060913;28;21123;-48
2020/12/17 05:46:41;;;;;;;23.43;12.10;;;4.40;99.90;;;;;;5068734;28;20504;-49
2020/12/17 05:49:18;;;;;;;26.73;12.80;;;4.20;99.90;;;;;;5065229;28;20461;-49
2020/12/17 05:51:46;;;;;;;26.20;12.53;;;4.20;99.90;;;;;;5068591;28;20470;-49
2020/12/17 05:54:22;;;;;;;23.83;11.80;;;4.30;99.90;;;;;;5068612;28;20474;-49
2020/12/17 05:56:50;;;;;;;27.20;12.50;;;4.50;99.90;;;;;;5068958;28;20435;-49
2020/12/17 05:59:23;;;;;;;26.77;13.23;;;4.40;99.90;;;;;;5068506;28;20959;-49
2020/12/17 06:01:50;;;;;;;29.20;13.10;;;4.30;99.90;;;;;;5049867;28;20855;-49
2020/12/17 06:04:17;;;;;;;25.17;12.70;;;4.00;99.90;;;;;;5054578;28;20881;-49
2020/12/17 06:06:47;;;;;;;22.90;11.73;;;4.10;99.90;;;;;;5060810;28;20447;-49
2020/12/17 06:09:21;;;;;;;27.27;11.87;;;4.20;99.90;;;;;;5049913;28;20448;-49
2020/12/17 06:11:49;;;;;;;25.67;11.30;;;3.90;99.90;;;;;;5050356;28;20468;-48
2020/12/17 06:14:18;;;;;;;22.03;11.77;;;4.00;99.90;;;;;;5052744;28;20514;-50
2020/12/17 06:16:53;;;;;;;21.80;11.40;;;3.80;99.90;;;;;;5053070;28;21236;-49
2020/12/17 06:19:23;;;;;;;26.50;11.87;;;3.90;99.90;;;;;;5055427;28;20898;-49
2020/12/17 06:21:50;;;;;;;25.53;10.93;;;3.70;99.90;;;;;;5062852;28;20542;-49
2020/12/17 06:24:19;;;;;;;23.27;12.90;;;3.60;99.90;;;;;;5067888;28;20492;-49
2020/12/17 06:26:52;;;;;;;24.97;12.00;;;3.60;99.90;;;;;;5059828;28;20460;-48
2020/12/17 06:29:20;;;;;;;31.13;12.77;;;3.40;99.90;;;;;;5051498;28;20519;-49
2020/12/17 06:31:57;;;;;;;26.27;12.30;;;3.20;99.90;;;;;;5049616;28;20467;-49
2020/12/17 06:34:29;;;;;;;29.00;12.60;;;3.10;99.90;;;;;;5063195;28;20475;-49
2020/12/17 06:36:58;;;;;;;30.23;11.60;;;3.30;99.90;;;;;;5053438;28;20455;-49
2020/12/17 06:39:25;;;;;;;27.83;11.50;;;3.20;99.90;;;;;;5049603;28;20489;-49
2020/12/17 06:41:52;;;;;;;23.97;12.13;;;3.00;99.90;;;;;;5049540;28;21027;-48
2020/12/17 06:44:28;;;;;;;25.97;11.57;;;3.20;99.90;;;;;;5049448;28;20440;-48
2020/12/17 06:46:56;;;;;;;26.83;11.13;;;3.20;99.90;;;;;;5065741;28;20454;-49
2020/12/17 06:49:28;;;;;;;25.33;11.30;;;3.00;99.90;;;;;;5072196;28;20864;-49
2020/12/17 06:52:03;;;;;;;22.23;11.20;;;3.00;99.90;;;;;;5070331;28;20544;-49
2020/12/17 06:54:40;;;;;;;20.17;10.83;;;3.10;99.90;;;;;;5071881;28;20470;-49
2020/12/17 06:57:08;;;;;;;22.20;11.13;;;3.10;99.90;;;;;;5072382;28;21130;-49
2020/12/17 06:59:36;;;;;;;21.43;11.07;;;2.90;99.90;;;;;;5071950;28;20434;-49
2020/12/17 07:02:03;;;;;;;20.63;10.63;;;3.10;99.90;;;;;;5071629;28;20532;-49
2020/12/17 07:04:42;;;;;;;22.00;10.67;;;3.00;99.90;;;;;;5070766;28;20488;-49
2020/12/17 07:07:10;;;;;;;17.63;10.20;;;3.00;99.90;;;;;;5056554;28;20981;-49
2020/12/17 07:09:36;;;;;;;19.43;10.97;;;2.80;99.90;;;;;;5071503;28;20468;-50
2020/12/17 07:12:03;;;;;;;18.30;9.77;;;2.60;99.90;;;;;;5071843;28;20496;-49
2020/12/17 07:14:35;;;;;;;18.63;9.93;;;2.60;99.90;;;;;;5071427;28;20896;-49
2020/12/17 07:17:04;;;;;;;23.93;10.70;;;2.60;99.90;;;;;;5071470;28;20458;-49
2020/12/17 07:19:38;;;;;;;20.67;10.50;;;2.60;99.90;;;;;;5071607;28;20852;-49
2020/12/17 07:22:07;;;;;;;18.30;9.93;;;2.50;99.90;;;;;;5066261;28;21040;-49
2020/12/17 07:24:36;;;;;;;21.50;10.90;;;2.50;99.90;;;;;;5053081;28;20509;-49
2020/12/17 07:27:11;;;;;;;21.20;11.57;;;2.40;99.90;;;;;;5052916;28;20457;-48
2020/12/17 07:29:48;;;;;;;23.20;11.10;;;2.40;99.90;;;;;;5052680;28;20443;-49
2020/12/17 07:32:32;;;;;;;18.77;10.90;;;2.20;99.90;;;;;;5052573;28;20520;-48
2020/12/17 07:35:14;;;;;;;18.10;10.73;;;2.10;99.90;;;;;;5052507;28;20532;-49
2020/12/17 07:37:44;;;;;;;19.23;10.20;;;2.10;99.90;;;;;;5052846;28;20474;-49
2020/12/17 07:40:25;;;;;;;21.47;11.30;;;2.10;99.90;;;;;;5052266;28;20811;-49
2020/12/17 07:42:59;;;;;;;19.50;10.20;;;2.00;99.90;;;;;;5055167;28;20815;-49
2020/12/17 07:45:43;;;;;;;16.20;10.03;;;2.10;99.90;;;;;;5052369;28;20497;-49
2020/12/17 07:48:38;;;;;;;17.50;10.00;;;2.20;99.90;;;;;;5052474;28;20451;-49
2020/12/17 07:51:06;;;;;;;16.43;9.73;;;2.00;99.90;;;;;;5046522;28;20554;-49
2020/12/17 07:53:34;;;;;;;13.77;9.00;;;1.90;99.90;;;;;;5052394;28;20436;-49
2020/12/17 07:56:01;;;;;;;14.20;9.27;;;1.90;99.90;;;;;;5052359;28;20513;-49
2020/12/17 07:58:28;;;;;;;17.97;9.97;;;1.80;99.90;;;;;;5052521;28;20542;-49
2020/12/17 08:00:55;;;;;;;16.40;9.50;;;1.90;99.90;;;;;;5051627;28;20528;-49
2020/12/17 08:03:23;;;;;;;20.17;10.17;;;2.10;99.90;;;;;;5052062;28;20500;-49
2020/12/17 08:05:51;;;;;;;15.17;9.33;;;2.10;99.90;;;;;;5052150;28;20505;-49
2020/12/17 08:08:18;;;;;;;14.00;8.87;;;2.10;99.90;;;;;;5051900;28;20937;-49
2020/12/17 08:10:46;;;;;;;15.30;8.93;;;2.30;99.90;;;;;;5051780;28;20482;-49
2020/12/17 08:13:14;;;;;;;14.37;9.00;;;2.30;99.90;;;;;;5070756;28;20446;-49
2020/12/17 08:15:41;;;;;;;14.47;9.50;;;2.30;99.90;;;;;;5070360;28;20475;-48
2020/12/17 08:18:07;;;;;;;17.27;9.80;;;2.00;99.90;;;;;;5068788;28;20484;-49
2020/12/17 08:20:35;;;;;;;17.43;10.20;;;1.80;99.90;;;;;;5070493;28;20833;-49
2020/12/17 08:23:01;;;;;;;17.60;9.57;;;1.90;99.90;;;;;;5064148;28;20964;-49
2020/12/17 08:25:30;;;;;;;19.47;10.70;;;2.00;99.90;;;;;;5069780;28;20472;-49
2020/12/17 08:27:58;;;;;;;21.60;11.90;;;2.00;99.90;;;;;;5070441;28;20478;-48
2020/12/17 08:30:24;;;;;;;24.60;12.90;;;2.00;99.90;;;;;;5070155;28;20469;-49
2020/12/17 08:32:52;;;;;;;25.73;11.73;;;2.20;99.90;;;;;;5059146;28;20451;-49
2020/12/17 08:35:21;;;;;;;20.10;11.00;;;2.50;99.90;;;;;;5051467;28;20872;-49
2020/12/17 08:37:52;;;;;;;21.70;11.10;;;2.70;99.90;;;;;;5051605;28;20447;-49
2020/12/17 08:40:23;;;;;;;18.03;9.73;;;2.80;99.90;;;;;;5051573;28;21034;-49
2020/12/17 08:42:54;;;;;;;18.83;9.63;;;3.10;99.90;;;;;;5051351;28;20969;-49
2020/12/17 08:45:24;;;;;;;24.50;9.90;;;2.90;99.90;;;;;;5051200;28;20926;-49
2020/12/17 08:47:57;;;;;;;16.47;9.80;;;3.00;99.90;;;;;;5051443;28;20466;-49
2020/12/17 08:50:23;;;;;;;16.53;9.67;;;3.00;99.90;;;;;;5051041;28;20456;-49
2020/12/17 08:52:50;;;;;;;17.97;10.53;;;3.40;99.90;;;;;;5051338;28;20470;-49
2020/12/17 08:55:17;;;;;;;16.50;9.40;;;3.40;99.90;;;;;;5051159;28;20488;-49
2020/12/17 08:57:44;;;;;;;18.00;11.30;;;3.60;99.90;;;;;;5048730;28;20472;-49
2020/12/17 09:00:15;;;;;;;14.30;9.90;;;4.10;99.90;;;;;;5050508;28;20799;-48
2020/12/17 09:02:42;;;;;;;13.93;8.60;;;4.20;99.90;;;;;;5050581;28;20439;-49
2020/12/17 09:05:12;;;;;;;15.87;9.47;;;4.40;99.90;;;;;;5050610;28;20929;-49
2020/12/17 09:07:40;;;;;;;18.83;10.50;;;4.30;99.90;;;;;;5050398;28;20444;-49
2020/12/17 09:10:09;;;;;;;13.90;8.27;;;4.30;99.90;;;;;;5049762;28;20436;-49
2020/12/17 09:12:36;;;;;;;16.77;9.10;;;4.10;99.90;;;;;;5050178;28;20467;-48
2020/12/17 09:15:07;;;;;;;15.17;8.70;;;4.10;99.90;;;;;;5051400;28;20564;-49
2020/12/17 09:17:33;;;;;;;15.90;9.60;;;4.20;99.90;;;;;;5070587;28;20455;-49
2020/12/17 09:20:01;;;;;;;18.63;10.00;;;4.30;99.90;;;;;;5066620;28;20448;-50
2020/12/17 09:22:34;;;;;;;14.63;9.83;;;4.40;99.90;;;;;;5050592;28;20475;-49
2020/12/17 09:25:00;;;;;;;19.50;9.13;;;4.70;99.90;;;;;;5050776;28;20459;-50
2020/12/17 09:27:28;;;;;;;14.57;9.37;;;4.90;99.90;;;;;;5050864;28;20426;-50
2020/12/17 09:30:10;;;;;;;15.90;8.90;;;5.10;99.90;;;;;;5050877;28;20481;-49
2020/12/17 09:32:39;;;;;;;14.37;9.23;;;5.10;99.90;;;;;;5050959;28;20461;-49
2020/12/17 09:35:12;;;;;;;18.10;9.50;;;4.70;99.90;;;;;;5050632;28;20479;-49
2020/12/17 09:37:39;;;;;;;18.17;9.80;;;4.70;99.90;;;;;;5052365;28;20456;-49
2020/12/17 09:40:08;;;;;;;14.90;10.13;;;4.80;99.90;;;;;;5063639;28;20455;-49
2020/12/17 09:42:35;;;;;;;20.00;10.47;;;4.50;99.90;;;;;;5050697;28;20451;-49
2020/12/17 09:45:15;;;;;;;18.10;9.77;;;4.60;99.90;;;;;;5050592;28;20451;-49
2020/12/17 09:47:42;;;;;;;16.20;9.73;;;4.70;99.90;;;;;;5050285;28;20929;-49
2020/12/17 09:50:14;;;;;;;18.23;9.53;;;4.80;99.90;;;;;;5050107;28;20478;-49
2020/12/17 09:52:41;;;;;;;16.30;9.77;;;5.00;99.90;;;;;;5064531;28;20451;-49
2020/12/17 09:55:07;;;;;;;14.63;9.50;;;4.90;99.90;;;;;;5070212;28;20483;-50
2020/12/17 09:57:38;;;;;;;15.20;9.60;;;5.00;99.90;;;;;;5070468;28;20936;-49
2020/12/17 10:00:10;;;;;;;13.23;8.33;;;5.00;99.90;;;;;;5069951;28;20457;-50
2020/12/17 10:02:37;;;;;;;17.97;9.80;;;5.00;99.90;;;;;;5070502;28;20434;-50
2020/12/17 10:05:05;;;;;;;17.23;9.80;;;4.90;99.90;;;;;;5070453;28;20442;-50
2020/12/17 10:07:32;;;;;;;22.23;9.87;;;5.00;99.90;;;;;;5066415;28;20451;-50
2020/12/17 10:09:59;;;;;;;17.00;9.00;;;5.30;99.90;;;;;;5049884;28;20451;-49
2020/12/17 10:12:25;;;;;;;15.70;8.77;;;5.20;99.90;;;;;;5049944;28;20977;-50
2020/12/17 10:14:52;;;;;;;13.53;9.40;;;5.30;99.90;;;;;;5049853;28;20545;-50
2020/12/17 10:17:19;;;;;;;16.53;9.77;;;5.60;99.90;;;;;;5050052;28;21028;-50
2020/12/17 10:19:45;;;;;;;13.07;8.90;;;5.60;99.90;;;;;;5049934;28;20496;-49
2020/12/17 10:22:12;;;;;;;15.80;9.27;;;5.70;99.90;;;;;;5050953;28;20471;-50
2020/12/17 10:24:39;;;;;;;13.73;9.23;;;6.10;99.90;;;;;;5072920;28;20454;-50
2020/12/17 10:27:06;;;;;;;16.30;8.00;;;6.50;99.90;;;;;;5074214;28;20448;-50
2020/12/17 10:29:32;;;;;;;14.83;8.53;;;6.70;99.90;;;;;;5073851;28;20450;-49
2020/12/17 10:31:58;;;;;;;14.37;8.63;;;7.20;99.90;;;;;;5074030;28;21145;-50
2020/12/17 10:34:25;;;;;;;14.77;9.20;;;7.00;99.90;;;;;;5074104;28;20478;-49
2020/12/17 10:36:51;;;;;;;13.50;9.13;;;7.20;99.90;;;;;;5073300;28;20817;-49
2020/12/17 10:39:18;;;;;;;13.83;9.20;;;7.40;99.90;;;;;;5073816;28;20446;-50
2020/12/17 10:41:45;;;;;;;16.20;9.60;;;7.30;99.90;;;;;;5073853;28;20462;-49
2020/12/17 10:44:12;;;;;;;15.70;9.10;;;7.20;99.90;;;;;;5073741;28;20477;-50
2020/12/17 10:46:39;;;;;;;14.07;8.80;;;7.00;99.90;;;;;;5074005;28;20458;-49
2020/12/17 10:49:06;;;;;;;14.97;8.87;;;6.90;99.90;;;;;;5073701;28;20453;-50
2020/12/17 10:51:32;;;;;;;12.60;8.60;;;7.10;99.90;;;;;;5073555;28;20478;-49
2020/12/17 10:54:00;;;;;;;13.53;8.70;;;7.20;99.90;;;;;;5071977;28;20494;-49
2020/12/17 10:56:26;;;;;;;14.97;8.70;;;7.20;99.90;;;;;;5073184;28;20515;-49
2020/12/17 10:58:54;;;;;;;14.77;8.93;;;7.00;99.90;;;;;;5073586;28;20525;-49
2020/12/17 11:01:22;;;;;;;13.90;9.33;;;6.80;99.90;;;;;;5096464;22;20490;-52
2020/12/17 11:03:49;;;;;;;14.40;9.10;;;7.00;99.90;;;;;;5073296;28;20840;-52
2020/12/17 11:06:16;;;;;;;15.27;9.30;;;6.80;99.90;;;;;;5073392;28;20475;-52
2020/12/17 11:08:43;;;;;;;15.20;8.50;;;6.60;99.90;;;;;;5072554;28;20833;-51
2020/12/17 11:11:10;;;;;;;14.60;8.83;;;6.70;99.90;;;;;;5072756;28;20474;-52
2020/12/17 11:13:37;;;;;;;21.33;9.50;;;6.90;99.90;;;;;;5072248;28;20447;-51
2020/12/17 11:16:05;;;;;;;15.97;9.40;;;6.90;99.90;;;;;;5071478;28;20474;-51
2020/12/17 11:18:32;;;;;;;12.60;7.97;;;6.70;99.90;;;;;;5068153;28;20448;-52
2020/12/17 11:20:58;;;;;;;13.03;8.40;;;6.70;99.90;;;;;;5071551;28;20475;-51
2020/12/17 11:23:25;;;;;;;12.10;8.27;;;7.00;99.90;;;;;;5071169;28;20449;-52
2020/12/17 11:25:52;;;;;;;11.53;8.07;;;6.90;99.90;;;;;;5071201;28;20499;-51
2020/12/17 11:28:18;;;;;;;12.40;7.30;;;7.10;99.90;;;;;;5071072;28;20454;-51
2020/12/17 11:30:45;;;;;;;8.73;6.17;;;7.30;99.90;;;;;;5067430;28;20960;-51
2020/12/17 11:33:12;;;;;;;7.67;5.77;;;7.50;99.90;;;;;;5051725;28;20974;-52
2020/12/17 11:35:39;;;;;;;10.30;6.00;;;7.70;99.90;;;;;;5067134;28;20482;-52
2020/12/17 11:38:06;;;;;;;9.43;6.30;;;7.80;99.90;;;;;;5056620;28;20478;-52
2020/12/17 11:40:32;;;;;;;12.00;7.00;;;7.90;99.90;;;;;;5051766;28;20444;-52
2020/12/17 11:42:59;;;;;;;9.80;5.70;;;7.90;99.90;;;;;;5052237;28;20501;-51
2020/12/17 11:45:25;;;;;;;10.30;6.80;;;7.90;99.90;;;;;;5071200;28;20446;-52
2020/12/17 11:47:53;;;;;;;13.27;7.40;;;7.90;99.90;;;;;;5070166;28;20446;-52
2020/12/17 11:50:20;;;;;;;12.23;7.37;;;8.00;99.90;;;;;;5054583;28;20451;-52
2020/12/17 11:52:47;;;;;;;10.57;6.80;;;8.10;99.90;;;;;;5051737;28;20464;-51
2020/12/17 11:55:13;;;;;;;8.87;6.30;;;8.10;99.90;;;;;;5051820;28;20485;-52
2020/12/17 11:57:40;;;;;;;10.47;6.70;;;8.00;99.90;;;;;;5051907;28;20476;-52
2020/12/17 12:00:08;;;;;;;10.73;6.67;;;7.90;99.90;;;;;;5053436;28;20509;-52
2020/12/17 12:02:35;;;;;;;12.35;7.20;;;8.00;99.90;;;;;;5051366;28;20467;-51
2020/12/17 12:05:03;;;;;;;9.90;6.93;;;7.80;99.90;;;;;;5051983;28;20201;-51
2020/12/17 12:07:30;;;;;;;10.17;7.20;;;7.70;99.90;;;;;;5056483;28;20442;-51
2020/12/17 12:09:57;;;;;;;10.70;7.50;;;7.50;99.90;;;;;;5057509;28;20459;-51
2020/12/17 12:12:23;;;;;;;12.97;7.63;;;7.40;99.90;;;;;;5050759;28;20478;-52
2020/12/17 12:14:50;;;;;;;12.23;7.03;;;7.30;99.90;;;;;;5051479;28;20486;-51
2020/12/17 12:17:16;;;;;;;9.37;6.77;;;7.10;99.90;;;;;;5053562;28;20455;-51
2020/12/17 12:19:43;;;;;;;9.00;7.00;;;7.10;99.90;;;;;;5070268;28;20443;-51
2020/12/17 12:22:10;;;;;;;10.30;7.30;;;7.10;99.90;;;;;;5070997;28;20467;-50
2020/12/17 12:24:37;;;;;;;12.40;8.67;;;6.90;99.90;;;;;;5068162;28;20446;-52
2020/12/17 12:27:04;;;;;;;9.07;7.20;;;6.70;99.90;;;;;;5051177;28;20446;-51
2020/12/17 12:29:31;;;;;;;12.60;8.13;;;6.70;99.90;;;;;;5051215;28;20444;-51
2020/12/17 12:31:57;;;;;;;10.93;8.37;;;6.90;99.90;;;;;;5066415;28;20463;-51
2020/12/17 12:34:25;;;;;;;17.80;10.80;;;6.80;99.90;;;;;;5070415;28;20485;-50
2020/12/17 12:36:52;;;;;;;21.07;12.50;;;7.00;99.90;;;;;;5070321;28;20451;-50
2020/12/17 12:39:19;;;;;;;19.17;12.50;;;6.90;99.90;;;;;;5069858;28;20942;-51
2020/12/17 12:41:47;;;;;;;22.20;13.70;;;6.80;99.90;;;;;;5070178;28;20544;-52
2020/12/17 12:44:14;;;;;;;24.40;13.47;;;6.90;99.90;;;;;;5070144;28;20446;-51